Time;durP1;ratioP1;P1;durP2;ratioP2;P2;SDS_P1;SDS_P2;PMS_P1;PMS_P2;Temp;Humidity;BMP_temperature;BMP_pressure;BME280_temperature;BME280_humidity;BME280_pressure;Samples;Min_cycle;Max_cycle;Signal;HPM_P1;HPM_P2
2024/04/09 00:00:08;;;;;;;22.30;4.10;;;19.30;99.90;;;;;;5489456;26;19998;-54
2024/04/09 00:02:33;;;;;;;20.80;4.10;;;19.40;99.70;;;;;;5489889;25;19998;-53
2024/04/09 00:04:59;;;;;;;14.25;3.83;;;19.40;99.90;;;;;;5489743;26;20545;-55
2024/04/09 00:07:24;;;;;;;14.32;3.95;;;19.40;99.90;;;;;;5489417;26;19998;-53
2024/04/09 00:09:52;;;;;;;16.88;4.97;;;19.40;99.90;;;;;;5489460;26;20006;-56
2024/04/09 00:12:21;;;;;;;16.38;4.07;;;19.30;99.90;;;;;;5490095;26;19994;-54
2024/04/09 00:14:48;;;;;;;22.65;4.93;;;19.40;99.90;;;;;;5489522;26;20077;-52
2024/04/09 00:17:19;;;;;;;22.33;4.75;;;19.50;99.90;;;;;;5487443;26;19995;-55
2024/04/09 00:19:47;;;;;;;17.50;4.00;;;19.60;99.80;;;;;;5489133;26;19990;-54
2024/04/09 00:22:14;;;;;;;21.75;4.85;;;19.50;99.70;;;;;;5489543;26;20342;-56
2024/04/09 00:24:40;;;;;;;17.52;4.15;;;19.50;99.90;;;;;;5489549;26;19998;-53
2024/04/09 00:27:06;;;;;;;16.33;3.75;;;19.60;99.90;;;;;;5489359;26;20001;-51
2024/04/09 00:29:34;;;;;;;19.92;4.38;;;19.50;99.90;;;;;;5488048;26;19994;-52
2024/04/09 00:32:00;;;;;;;21.75;4.55;;;19.40;99.90;;;;;;5489447;26;20345;-56
2024/04/09 00:34:26;;;;;;;21.35;5.78;;;19.40;99.90;;;;;;5489882;26;19994;-51
2024/04/09 00:36:51;;;;;;;35.10;17.25;;;19.40;99.90;;;;;;5489272;26;20438;-53
2024/04/09 00:39:22;;;;;;;15.35;5.32;;;19.50;99.90;;;;;;5486828;26;20013;-54
2024/04/09 00:41:48;;;;;;;31.15;10.70;;;19.40;99.90;;;;;;5488480;26;20013;-52
2024/04/09 00:44:14;;;;;;;19.20;4.90;;;19.30;99.90;;;;;;5452545;21;20015;-51
2024/04/09 00:46:40;;;;;;;15.43;5.20;;;19.20;99.90;;;;;;5416683;26;20007;-55
2024/04/09 00:49:08;;;;;;;20.52;6.10;;;19.10;99.90;;;;;;5384729;26;19991;-50
2024/04/09 00:51:34;;;;;;;28.83;4.97;;;18.90;99.90;;;;;;5416783;26;19996;-49
2024/04/09 00:54:00;;;;;;;19.73;4.82;;;18.80;99.90;;;;;;5416687;26;20451;-53
2024/04/09 00:56:27;;;;;;;13.88;4.05;;;18.80;99.90;;;;;;5416473;26;19991;-53
2024/04/09 00:58:53;;;;;;;9.85;4.10;;;18.70;99.90;;;;;;5416184;26;19991;-53
2024/04/09 01:01:19;;;;;;;18.02;3.97;;;18.70;99.90;;;;;;5416531;26;19992;-51
2024/04/09 01:03:45;;;;;;;11.07;3.22;;;18.60;99.90;;;;;;5385035;26;20342;-54
2024/04/09 01:06:11;;;;;;;17.50;4.00;;;18.60;99.90;;;;;;5416626;26;20006;-48
2024/04/09 01:08:37;;;;;;;10.43;3.67;;;18.60;99.90;;;;;;5384612;26;19991;-47
2024/04/09 01:11:03;;;;;;;16.23;4.13;;;18.60;99.90;;;;;;5416324;26;20469;-46
2024/04/09 01:13:28;;;;;;;15.15;3.90;;;18.60;99.90;;;;;;5416169;26;20034;-49
2024/04/09 01:15:54;;;;;;;22.63;5.22;;;18.60;99.90;;;;;;5384820;26;19992;-47
2024/04/09 01:18:20;;;;;;;22.05;5.15;;;18.90;99.90;;;;;;5415951;26;19991;-52
2024/04/09 01:20:45;;;;;;;21.17;5.60;;;19.00;99.90;;;;;;5416335;26;19995;-54
2024/04/09 01:23:11;;;;;;;19.25;5.25;;;19.00;99.90;;;;;;5416329;26;20003;-56
2024/04/09 01:25:37;;;;;;;26.75;5.25;;;19.20;99.90;;;;;;5384697;26;20002;-53
2024/04/09 01:28:04;;;;;;;19.20;4.40;;;19.20;99.90;;;;;;5444722;26;19996;-56
2024/04/09 01:30:29;;;;;;;24.40;4.65;;;19.20;99.90;;;;;;5384402;26;20496;-53
2024/04/09 01:32:55;;;;;;;26.33;5.63;;;19.10;99.90;;;;;;5444498;26;20078;-53
2024/04/09 01:35:20;;;;;;;24.35;5.60;;;19.10;99.90;;;;;;5416032;26;20407;-52
2024/04/09 01:37:46;;;;;;;25.52;6.50;;;19.10;99.90;;;;;;5384225;26;20090;-49
2024/04/09 01:40:12;;;;;;;23.05;5.70;;;19.20;99.90;;;;;;5415132;26;19991;-53
2024/04/09 01:42:38;;;;;;;19.42;4.00;;;19.10;99.90;;;;;;5442505;26;19995;-51
2024/04/09 01:45:04;;;;;;;19.85;4.75;;;19.10;99.90;;;;;;5384698;26;20002;-54
2024/04/09 01:47:30;;;;;;;24.58;5.10;;;19.00;99.90;;;;;;5415719;26;20090;-53
2024/04/09 01:49:57;;;;;;;29.73;4.72;;;18.90;99.90;;;;;;5415488;26;20030;-54
2024/04/09 01:52:23;;;;;;;17.80;4.72;;;18.90;99.90;;;;;;5415754;26;19992;-52
2024/04/09 01:54:49;;;;;;;25.55;4.18;;;18.90;99.90;;;;;;5415896;26;20117;-54
2024/04/09 01:57:14;;;;;;;16.42;5.03;;;18.90;99.90;;;;;;5415626;26;19999;-52
2024/04/09 01:59:41;;;;;;;18.85;4.38;;;18.90;99.90;;;;;;5383803;26;20029;-53
2024/04/09 02:02:07;;;;;;;21.90;4.70;;;18.90;99.90;;;;;;5443729;26;19992;-51
2024/04/09 02:04:33;;;;;;;15.63;4.60;;;18.80;99.90;;;;;;5415762;26;20408;-50
2024/04/09 02:06:59;;;;;;;15.00;4.15;;;18.80;99.90;;;;;;5415667;26;20003;-49
2024/04/09 02:09:26;;;;;;;18.27;4.63;;;18.80;99.90;;;;;;5415419;26;20003;-54
2024/04/09 02:11:52;;;;;;;21.35;5.35;;;18.80;99.90;;;;;;5415886;26;20533;-50
2024/04/09 02:14:18;;;;;;;25.35;5.07;;;18.70;99.90;;;;;;5415340;26;19988;-55
2024/04/09 02:16:43;;;;;;;26.98;5.43;;;18.90;99.90;;;;;;5415545;26;20348;-57
2024/04/09 02:19:09;;;;;;;22.75;4.63;;;19.00;99.90;;;;;;5415047;26;20023;-56
2024/04/09 02:21:34;;;;;;;19.92;5.50;;;19.10;99.90;;;;;;5415432;26;20035;-53
2024/04/09 02:24:01;;;;;;;18.05;4.68;;;19.10;99.90;;;;;;5415492;26;20323;-56
2024/04/09 02:26:28;;;;;;;20.42;4.50;;;19.10;99.90;;;;;;5415231;26;20118;-55
2024/04/09 02:28:54;;;;;;;29.77;6.20;;;19.20;99.90;;;;;;5414841;26;20006;-52
2024/04/09 02:31:20;;;;;;;25.65;5.90;;;19.20;99.90;;;;;;5415259;26;19992;-54
2024/04/09 02:33:45;;;;;;;23.00;4.90;;;19.20;99.90;;;;;;5354735;26;20466;-55
2024/04/09 02:36:11;;;;;;;17.85;4.88;;;19.00;99.90;;;;;;5415179;26;20002;-55
2024/04/09 02:38:37;;;;;;;29.10;4.70;;;19.00;99.90;;;;;;5415208;26;20003;-58
2024/04/09 02:41:08;;;;;;;13.60;4.20;;;18.90;99.90;;;;;;5415181;26;20010;-59
2024/04/09 02:43:35;;;;;;;17.40;4.93;;;18.90;99.90;;;;;;5383737;26;19999;-57
2024/04/09 02:46:01;;;;;;;20.35;4.93;;;18.80;99.90;;;;;;5415321;26;20007;-56
2024/04/09 02:48:28;;;;;;;22.90;5.03;;;18.70;99.90;;;;;;5414601;26;19995;-55
2024/04/09 02:50:57;;;;;;;15.95;4.55;;;18.70;99.90;;;;;;5414654;26;19991;-58
2024/04/09 02:53:23;;;;;;;25.13;4.07;;;18.50;99.90;;;;;;5414035;26;20011;-52
2024/04/09 02:56:18;;;;;;;23.23;4.45;;;18.40;99.90;;;;;;5414901;26;19996;-54
2024/04/09 02:58:44;;;;;;;25.60;5.78;;;18.40;99.90;;;;;;5391516;26;20006;-56
2024/04/09 03:01:10;;;;;;;20.40;4.70;;;18.20;99.90;;;;;;5414704;26;20007;-53
2024/04/09 03:03:37;;;;;;;25.05;5.32;;;18.10;99.90;;;;;;5414818;26;20358;-52
2024/04/09 03:06:07;;;;;;;25.60;5.57;;;18.00;99.90;;;;;;5414566;26;19991;-56
2024/04/09 03:08:33;;;;;;;16.40;4.22;;;18.00;99.90;;;;;;5414103;26;20008;-57
2024/04/09 03:10:59;;;;;;;30.17;5.55;;;18.00;99.90;;;;;;5414496;26;19999;-53
2024/04/09 03:13:24;;;;;;;32.13;5.18;;;18.00;99.90;;;;;;5414523;26;19999;-57
2024/04/09 03:15:50;;;;;;;21.25;5.18;;;18.00;99.90;;;;;;5414373;26;20006;-54
2024/04/09 03:18:17;;;;;;;28.35;4.15;;;17.90;99.90;;;;;;5382841;26;19999;-55
2024/04/09 03:20:43;;;;;;;23.40;4.03;;;17.90;99.90;;;;;;5413969;26;20428;-54
2024/04/09 03:23:08;;;;;;;21.10;4.53;;;17.80;99.90;;;;;;5414271;26;20014;-56
2024/04/09 03:25:34;;;;;;;28.42;5.68;;;17.90;99.90;;;;;;5413607;26;19999;-54
2024/04/09 03:27:59;;;;;;;26.90;5.38;;;17.80;99.90;;;;;;5413645;26;20459;-53
2024/04/09 03:30:25;;;;;;;28.38;5.38;;;17.80;99.90;;;;;;5414138;26;19999;-53
2024/04/09 03:32:53;;;;;;;21.75;4.30;;;17.80;99.90;;;;;;5413835;26;20011;-56
2024/04/09 03:35:19;;;;;;;19.05;4.10;;;17.90;99.90;;;;;;5414313;26;20086;-52
2024/04/09 03:37:44;;;;;;;27.13;4.75;;;17.90;99.90;;;;;;5413861;26;20003;-53
2024/04/09 03:40:10;;;;;;;21.58;5.45;;;17.90;99.90;;;;;;5413843;26;19996;-53
2024/04/09 03:42:36;;;;;;;26.80;4.43;;;18.00;99.90;;;;;;5413394;26;19999;-54
2024/04/09 03:45:05;;;;;;;16.35;3.67;;;18.10;99.90;;;;;;5441962;26;20028;-54
2024/04/09 03:47:31;;;;;;;24.25;5.30;;;18.00;99.90;;;;;;5382253;26;19991;-53
2024/04/09 03:49:56;;;;;;;18.23;4.80;;;18.00;99.90;;;;;;5413444;26;20000;-54
2024/04/09 03:52:22;;;;;;;24.15;5.63;;;17.90;99.90;;;;;;5413573;26;20416;-53
2024/04/09 03:54:47;;;;;;;27.20;4.35;;;17.90;99.90;;;;;;5413772;26;20003;-54
2024/04/09 03:57:13;;;;;;;17.23;4.82;;;18.00;99.90;;;;;;5382900;26;20474;-57
2024/04/09 03:59:38;;;;;;;34.50;5.40;;;18.00;99.90;;;;;;5414112;26;20064;-56
2024/04/09 04:02:04;;;;;;;34.58;5.65;;;18.10;99.90;;;;;;5414437;26;20376;-58
2024/04/09 04:04:29;;;;;;;20.40;4.60;;;18.10;99.90;;;;;;5414527;26;19999;-57
2024/04/09 04:06:55;;;;;;;25.95;4.68;;;18.20;99.90;;;;;;5416836;26;20006;-54
2024/04/09 04:09:23;;;;;;;23.30;4.68;;;18.30;99.90;;;;;;5416680;26;19995;-60
2024/04/09 04:11:49;;;;;;;30.60;3.92;;;18.30;99.90;;;;;;5416889;26;20007;-55
2024/04/09 04:14:15;;;;;;;43.22;5.15;;;18.30;99.90;;;;;;5416674;26;19999;-56
2024/04/09 04:16:41;;;;;;;22.83;4.35;;;18.30;99.90;;;;;;5416541;26;20090;-57
2024/04/09 04:19:06;;;;;;;19.80;4.50;;;18.40;99.90;;;;;;5416385;26;20382;-57
2024/04/09 04:21:32;;;;;;;27.65;5.72;;;18.40;99.90;;;;;;5385442;26;20342;-56
2024/04/09 04:23:57;;;;;;;22.85;3.95;;;18.50;99.90;;;;;;5417182;26;19999;-57
2024/04/09 04:26:24;;;;;;;24.73;4.10;;;18.60;99.90;;;;;;5417206;26;20458;-57
2024/04/09 04:28:51;;;;;;;20.50;3.88;;;18.70;99.90;;;;;;5416333;26;20334;-56
2024/04/09 04:31:19;;;;;;;23.60;5.07;;;18.80;99.90;;;;;;5416958;26;20389;-55
2024/04/09 04:33:46;;;;;;;26.92;4.35;;;18.80;99.90;;;;;;5416786;26;20451;-58
2024/04/09 04:36:13;;;;;;;19.70;3.78;;;18.90;99.90;;;;;;5385260;26;19999;-57
2024/04/09 04:38:40;;;;;;;20.45;4.50;;;18.90;99.90;;;;;;5416064;26;20335;-58
2024/04/09 04:41:05;;;;;;;22.90;3.75;;;18.80;99.90;;;;;;5415639;26;20007;-54
2024/04/09 04:43:32;;;;;;;14.82;4.10;;;18.90;99.90;;;;;;5416402;26;19991;-55
2024/04/09 04:45:57;;;;;;;19.80;5.05;;;18.80;99.90;;;;;;5416567;26;20003;-58
2024/04/09 04:48:23;;;;;;;28.02;4.40;;;18.80;99.90;;;;;;5416387;26;20556;-56
2024/04/09 04:50:49;;;;;;;24.75;5.50;;;18.80;99.90;;;;;;5416483;26;20084;-55
2024/04/09 04:53:15;;;;;;;22.25;3.60;;;18.80;99.90;;;;;;5416516;26;20147;-54
2024/04/09 04:55:41;;;;;;;16.20;4.57;;;18.80;99.90;;;;;;5385400;26;20000;-55
2024/04/09 04:58:07;;;;;;;25.50;4.20;;;18.80;99.90;;;;;;5384895;26;20407;-56
2024/04/09 05:00:35;;;;;;;11.57;3.10;;;18.70;99.90;;;;;;5416264;26;19995;-57
2024/04/09 05:03:01;;;;;;;15.60;3.22;;;18.70;99.90;;;;;;5416637;26;20010;-59
2024/04/09 05:05:27;;;;;;;14.25;3.25;;;18.70;99.90;;;;;;5416514;26;20000;-58
2024/04/09 05:07:53;;;;;;;9.10;3.22;;;18.70;99.90;;;;;;5416440;26;20030;-54
2024/04/09 05:10:19;;;;;;;11.55;2.60;;;18.70;99.90;;;;;;5416369;26;19997;-57
2024/04/09 05:12:49;;;;;;;12.75;3.33;;;18.60;99.90;;;;;;5416502;26;19996;-57
2024/04/09 05:15:16;;;;;;;20.05;3.10;;;18.60;99.90;;;;;;5416025;26;20086;-56
2024/04/09 05:17:43;;;;;;;13.93;2.95;;;18.60;99.90;;;;;;5416468;26;20006;-57
2024/04/09 05:20:11;;;;;;;13.57;2.92;;;18.60;99.90;;;;;;5444545;26;19999;-56
2024/04/09 05:22:38;;;;;;;20.38;3.50;;;18.50;99.90;;;;;;5416456;26;19996;-58
2024/04/09 05:25:05;;;;;;;14.27;2.83;;;18.40;99.90;;;;;;5416226;26;20000;-54
2024/04/09 05:27:30;;;;;;;15.57;3.15;;;18.40;99.90;;;;;;5384641;26;19996;-57
2024/04/09 05:29:56;;;;;;;19.50;3.70;;;18.40;99.90;;;;;;5415966;26;20010;-53
2024/04/09 05:32:21;;;;;;;12.77;2.88;;;18.30;99.90;;;;;;5416259;26;19999;-59
2024/04/09 05:34:47;;;;;;;12.57;3.55;;;18.20;99.90;;;;;;5384912;26;20435;-58
2024/04/09 05:37:13;;;;;;;24.33;3.10;;;18.20;99.90;;;;;;5416192;26;20014;-55
2024/04/09 05:39:38;;;;;;;14.38;2.92;;;18.30;99.90;;;;;;5415757;26;20028;-54
2024/04/09 05:42:04;;;;;;;21.55;3.67;;;18.30;99.90;;;;;;5415505;26;20083;-57
2024/04/09 05:44:29;;;;;;;10.18;2.95;;;18.20;99.90;;;;;;5384621;26;20361;-58
2024/04/09 05:46:55;;;;;;;16.80;2.50;;;18.20;99.90;;;;;;5416092;26;19999;-57
2024/04/09 05:49:22;;;;;;;6.95;2.70;;;18.10;99.90;;;;;;5383982;26;20433;-54
2024/04/09 05:51:48;;;;;;;11.35;2.55;;;18.10;99.90;;;;;;5415348;26;20003;-54
2024/04/09 05:54:16;;;;;;;11.73;2.53;;;18.00;99.90;;;;;;5415669;26;19995;-57
2024/04/09 05:56:42;;;;;;;22.02;2.47;;;18.00;99.90;;;;;;5415643;26;20382;-60
2024/04/09 05:59:07;;;;;;;7.03;2.10;;;18.00;99.90;;;;;;5415431;26;19999;-57
2024/04/09 06:01:33;;;;;;;14.23;2.72;;;18.00;99.90;;;;;;5415790;26;20000;-56
2024/04/09 06:03:58;;;;;;;7.20;2.05;;;18.00;99.90;;;;;;5415615;26;19999;-58
2024/04/09 06:06:24;;;;;;;15.05;2.38;;;18.00;99.90;;;;;;5443797;26;19996;-57
2024/04/09 06:08:49;;;;;;;24.35;2.60;;;18.10;99.90;;;;;;5415349;26;20007;-56
2024/04/09 06:11:17;;;;;;;10.02;2.20;;;18.00;99.90;;;;;;5415541;26;20350;-58
2024/04/09 06:13:42;;;;;;;5.03;2.63;;;18.00;99.90;;;;;;5415561;26;19995;-59
2024/04/09 06:16:08;;;;;;;10.73;2.67;;;18.00;99.90;;;;;;5415687;26;20006;-56
2024/04/09 06:18:33;;;;;;;7.57;1.50;;;18.00;99.90;;;;;;5414966;26;20007;-57
2024/04/09 06:20:59;;;;;;;4.55;1.60;;;18.10;99.90;;;;;;5415346;26;19996;-56
2024/04/09 06:23:24;;;;;;;11.27;1.90;;;18.10;99.90;;;;;;5415331;26;20000;-55
2024/04/09 06:25:54;;;;;;;9.10;2.30;;;18.10;99.90;;;;;;5414764;26;20004;-58
2024/04/09 06:28:20;;;;;;;6.28;1.30;;;18.10;99.90;;;;;;5414153;26;20014;-57
2024/04/09 06:30:45;;;;;;;6.10;1.45;;;18.10;99.90;;;;;;5414964;26;20000;-59
2024/04/09 06:33:11;;;;;;;5.32;1.45;;;18.10;99.90;;;;;;5415182;26;20012;-56
2024/04/09 06:35:38;;;;;;;14.23;1.48;;;18.10;99.90;;;;;;5415165;26;20092;-56
2024/04/09 06:38:03;;;;;;;10.32;2.80;;;18.10;99.90;;;;;;5415623;26;20346;-58
2024/04/09 06:40:31;;;;;;;7.03;1.70;;;18.10;99.90;;;;;;5414907;26;20098;-56
2024/04/09 06:42:57;;;;;;;5.13;2.28;;;18.30;99.90;;;;;;5429478;21;20019;-43
2024/04/09 06:45:23;;;;;;;4.22;1.20;;;18.30;99.90;;;;;;5370988;26;19993;-50
2024/04/09 06:47:48;;;;;;;10.82;2.35;;;18.20;99.90;;;;;;5344994;26;20008;-49
2024/04/09 06:50:15;;;;;;;3.53;1.65;;;18.20;99.90;;;;;;5344638;26;20449;-47
2024/04/09 06:52:41;;;;;;;5.32;1.60;;;18.10;99.90;;;;;;5343876;26;20007;-44
2024/04/09 06:55:07;;;;;;;3.08;1.42;;;18.00;99.90;;;;;;5279835;27;20009;-43
2024/04/09 06:57:33;;;;;;;5.65;1.48;;;18.00;99.90;;;;;;5277415;27;19990;-51
2024/04/09 06:59:59;;;;;;;6.97;2.42;;;17.90;99.90;;;;;;5310145;27;20473;-49
2024/04/09 07:02:24;;;;;;;3.03;1.13;;;17.80;99.90;;;;;;5310081;27;20116;-48
2024/04/09 07:04:50;;;;;;;7.32;1.23;;;17.70;99.90;;;;;;5310290;26;20075;-48
2024/04/09 07:07:15;;;;;;;5.32;1.58;;;17.80;99.90;;;;;;5296066;26;20005;-46
2024/04/09 07:09:41;;;;;;;2.60;1.25;;;17.80;99.90;;;;;;5296060;27;20477;-49
2024/04/09 07:12:07;;;;;;;3.22;1.20;;;17.80;99.90;;;;;;5310068;27;20450;-50
2024/04/09 07:14:33;;;;;;;2.80;1.13;;;17.80;99.90;;;;;;5309849;26;20480;-47
2024/04/09 07:16:58;;;;;;;1.65;0.80;;;17.70;99.90;;;;;;5309687;27;20135;-46
2024/04/09 07:19:24;;;;;;;2.42;1.25;;;17.70;99.90;;;;;;5309307;27;19994;-47
2024/04/09 07:21:50;;;;;;;3.50;1.10;;;17.70;99.90;;;;;;5307065;27;20473;-45
2024/04/09 07:24:15;;;;;;;3.78;0.80;;;17.80;99.90;;;;;;5310030;26;19997;-50
2024/04/09 07:26:41;;;;;;;1.45;0.60;;;17.80;99.90;;;;;;5310023;27;20338;-46
2024/04/09 07:29:07;;;;;;;0.60;0.60;;;17.80;99.90;;;;;;5303671;27;20009;-45
2024/04/09 07:31:34;;;;;;;3.17;0.75;;;17.90;99.90;;;;;;5309223;27;20082;-48
2024/04/09 07:33:59;;;;;;;3.00;0.85;;;17.90;99.90;;;;;;5278719;26;20030;-46
2024/04/09 07:36:25;;;;;;;0.63;0.50;;;17.90;99.90;;;;;;5283145;27;20029;-47
2024/04/09 07:38:52;;;;;;;4.20;0.80;;;17.80;99.90;;;;;;5289349;27;20571;-49
2024/04/09 07:41:22;;;;;;;0.90;0.90;;;17.90;99.90;;;;;;5278758;27;19999;-50
2024/04/09 07:43:48;;;;;;;1.50;0.70;;;18.00;99.90;;;;;;5310204;26;20598;-46
2024/04/09 07:46:14;;;;;;;0.50;0.50;;;18.00;99.90;;;;;;5312679;26;20001;-46
2024/04/09 07:48:39;;;;;;;9.43;1.45;;;18.00;99.90;;;;;;5312135;27;19994;-47
2024/04/09 07:51:05;;;;;;;0.40;0.40;;;17.80;99.90;;;;;;5313347;27;19993;-50
2024/04/09 07:53:31;;;;;;;1.63;0.30;;;17.70;99.90;;;;;;5313175;26;19994;-51
2024/04/09 07:55:57;;;;;;;0.50;0.43;;;17.60;99.90;;;;;;5306281;26;20466;-50
2024/04/09 07:58:23;;;;;;;2.97;0.50;;;17.40;99.90;;;;;;5278184;27;20453;-47
2024/04/09 08:00:49;;;;;;;0.47;0.40;;;17.20;99.90;;;;;;5277832;27;20002;-45
2024/04/09 08:03:14;;;;;;;7.55;0.55;;;17.10;99.90;;;;;;5276662;27;20010;-50
2024/04/09 08:05:40;;;;;;;14.93;0.70;;;17.00;99.90;;;;;;5299645;27;20033;-47
2024/04/09 08:08:05;;;;;;;5.35;2.25;;;16.70;99.90;;;;;;5312384;27;20005;-45
2024/04/09 08:10:32;;;;;;;1.08;0.30;;;16.40;99.90;;;;;;5312269;26;20004;-48
2024/04/09 08:13:00;;;;;;;1.88;0.57;;;16.10;99.90;;;;;;5312137;26;19997;-49
2024/04/09 08:15:25;;;;;;;2.72;1.02;;;15.80;99.90;;;;;;5309724;27;20010;-50
2024/04/09 08:17:51;;;;;;;2.83;0.40;;;15.50;99.90;;;;;;5276534;27;20448;-51
2024/04/09 08:20:19;;;;;;;1.17;0.60;;;15.30;99.90;;;;;;5299109;27;20071;-46
2024/04/09 08:22:49;;;;;;;6.88;1.25;;;15.30;99.90;;;;;;5312535;26;19997;-46
2024/04/09 08:25:15;;;;;;;1.63;0.50;;;15.10;99.90;;;;;;5309197;26;20033;-44
2024/04/09 08:27:42;;;;;;;2.30;0.60;;;15.00;99.90;;;;;;5312001;26;20093;-49
2024/04/09 08:30:09;;;;;;;1.02;0.40;;;14.90;99.90;;;;;;5309266;27;20009;-49
2024/04/09 08:32:35;;;;;;;5.80;0.60;;;14.90;99.90;;;;;;5311280;27;20002;-46
2024/04/09 08:35:01;;;;;;;1.85;0.50;;;14.90;99.90;;;;;;5311865;26;20001;-47
2024/04/09 08:37:27;;;;;;;3.13;0.40;;;14.80;99.90;;;;;;5310129;26;20033;-50
2024/04/09 08:39:54;;;;;;;0.93;0.50;;;14.80;99.90;;;;;;5291840;26;20010;-46
2024/04/09 08:42:26;;;;;;;2.67;0.40;;;14.80;99.90;;;;;;5278111;27;20350;-48
2024/04/09 08:44:55;;;;;;;1.27;0.40;;;14.80;99.90;;;;;;5278124;27;20034;-50
2024/04/09 08:47:22;;;;;;;1.35;0.38;;;14.80;99.90;;;;;;5278099;27;20348;-51
2024/04/09 08:49:55;;;;;;;2.42;0.50;;;14.80;99.90;;;;;;5277179;27;20013;-48
2024/04/09 08:52:23;;;;;;;0.60;0.40;;;14.80;99.90;;;;;;5301689;27;20002;-52
2024/04/09 08:54:49;;;;;;;0.52;0.30;;;14.80;99.90;;;;;;5312406;26;19997;-48
2024/04/09 08:57:14;;;;;;;4.60;0.47;;;14.80;99.90;;;;;;5312358;27;20012;-48
2024/04/09 08:59:40;;;;;;;0.35;0.30;;;14.80;99.90;;;;;;5312099;27;20009;-47
2024/04/09 09:02:14;;;;;;;2.97;0.60;;;14.80;99.90;;;;;;5310206;27;20008;-48
2024/04/09 09:04:42;;;;;;;0.60;0.40;;;14.90;99.90;;;;;;5339184;26;20029;-50
2024/04/09 09:07:18;;;;;;;0.75;0.30;;;14.80;99.90;;;;;;5312397;26;20012;-49
2024/04/09 09:09:46;;;;;;;9.88;1.38;;;14.70;99.90;;;;;;5311548;26;20001;-49
2024/04/09 09:12:12;;;;;;;1.45;0.50;;;14.70;99.90;;;;;;5310014;27;20034;-51
2024/04/09 09:14:38;;;;;;;3.40;0.45;;;14.70;99.90;;;;;;5311662;26;20484;-47
2024/04/09 09:17:11;;;;;;;7.78;0.70;;;14.70;99.90;;;;;;5308699;26;20005;-50
2024/04/09 09:19:37;;;;;;;0.73;0.40;;;14.60;99.90;;;;;;5296319;27;20125;-50
2024/04/09 09:22:07;;;;;;;3.45;0.70;;;14.80;99.90;;;;;;5304862;27;20050;-52
2024/04/09 09:24:34;;;;;;;2.42;0.43;;;14.60;99.90;;;;;;5282588;26;20031;-46
2024/04/09 09:27:00;;;;;;;0.30;0.30;;;14.60;99.90;;;;;;5283333;27;20482;-50
2024/04/09 09:29:26;;;;;;;3.22;0.85;;;14.50;99.90;;;;;;5311044;26;20037;-53
2024/04/09 09:31:52;;;;;;;1.67;0.52;;;14.40;99.90;;;;;;5311102;27;20067;-50
2024/04/09 09:34:21;;;;;;;1.55;0.65;;;14.40;99.90;;;;;;5338297;26;20488;-50
2024/04/09 09:36:48;;;;;;;5.28;1.25;;;14.40;99.90;;;;;;5311223;26;20341;-54
2024/04/09 09:39:14;;;;;;;1.33;0.60;;;14.20;99.90;;;;;;5310585;26;19997;-53
2024/04/09 09:41:43;;;;;;;6.38;0.90;;;14.10;99.90;;;;;;5311178;27;20016;-50
2024/04/09 09:44:10;;;;;;;2.33;0.93;;;14.00;99.90;;;;;;5310816;26;20021;-56
2024/04/09 09:46:36;;;;;;;1.52;0.40;;;13.90;99.90;;;;;;5307890;26;20441;-51
2024/04/09 09:49:03;;;;;;;4.32;0.73;;;13.90;99.90;;;;;;5310625;26;19998;-50
2024/04/09 09:51:29;;;;;;;2.17;0.80;;;13.80;99.90;;;;;;5311276;26;20008;-50
2024/04/09 09:53:56;;;;;;;5.95;1.02;;;13.80;99.90;;;;;;5311277;26;19993;-51
2024/04/09 09:56:23;;;;;;;2.58;0.70;;;13.80;99.90;;;;;;5311119;26;20018;-55
2024/04/09 09:58:52;;;;;;;10.35;1.00;;;13.90;99.90;;;;;;5310315;26;20075;-56
2024/04/09 10:01:19;;;;;;;1.55;0.70;;;13.90;99.90;;;;;;5308554;27;20468;-53
2024/04/09 10:03:45;;;;;;;2.25;0.88;;;13.80;99.90;;;;;;5310155;26;20001;-50
2024/04/09 10:06:11;;;;;;;8.32;0.77;;;13.90;99.90;;;;;;5302542;27;20030;-46
2024/04/09 10:08:43;;;;;;;6.20;0.90;;;13.90;99.90;;;;;;5294955;27;20322;-48
2024/04/09 10:11:11;;;;;;;1.65;0.70;;;13.90;99.90;;;;;;5311050;26;20041;-47
2024/04/09 10:13:48;;;;;;;5.00;1.05;;;13.70;99.90;;;;;;5278603;26;20124;-42
2024/04/09 10:16:17;;;;;;;2.35;0.75;;;13.70;99.90;;;;;;5276642;27;20373;-51
2024/04/09 10:18:46;;;;;;;7.60;1.00;;;13.70;99.90;;;;;;5278149;27;20002;-49
2024/04/09 10:21:13;;;;;;;2.00;0.70;;;13.60;99.90;;;;;;5276647;27;20002;-45
2024/04/09 10:23:41;;;;;;;3.50;0.82;;;13.60;99.90;;;;;;5276414;27;20010;-49
2024/04/09 10:26:10;;;;;;;3.40;0.57;;;13.60;99.90;;;;;;5307414;27;20012;-42
2024/04/09 10:28:36;;;;;;;7.60;1.50;;;14.30;99.90;;;;;;5305269;26;21981;-48
2024/04/09 10:31:08;;;;;;;1.40;0.47;;;13.60;99.90;;;;;;5313640;26;20052;-48
2024/04/09 10:33:38;;;;;;;3.00;0.60;;;13.60;99.90;;;;;;5344208;26;20248;-55
2024/04/09 10:36:09;;;;;;;3.95;0.70;;;13.60;99.90;;;;;;5317006;26;20462;-46
2024/04/09 10:38:38;;;;;;;4.43;1.00;;;13.50;99.90;;;;;;5316193;26;20044;-54
2024/04/09 10:41:04;;;;;;;8.55;0.70;;;13.50;99.90;;;;;;5339461;26;20718;-54
2024/04/09 10:43:30;;;;;;;1.95;0.90;;;13.50;99.90;;;;;;5314512;26;20074;-52
2024/04/09 10:45:58;;;;;;;2.72;0.82;;;13.40;99.90;;;;;;5319935;26;20005;-49
2024/04/09 10:48:24;;;;;;;1.33;0.90;;;13.40;99.90;;;;;;5322765;26;20009;-53
2024/04/09 10:50:51;;;;;;;2.20;1.23;;;13.40;99.90;;;;;;5299968;26;20017;-56
2024/04/09 10:53:17;;;;;;;3.75;1.38;;;13.30;99.90;;;;;;5310203;26;20071;-55
2024/04/09 10:55:43;;;;;;;3.13;0.98;;;13.30;99.90;;;;;;5330543;26;20016;-51
2024/04/09 10:58:17;;;;;;;5.05;0.90;;;13.30;99.90;;;;;;5303567;26;20379;-49
2024/04/09 11:00:43;;;;;;;3.47;0.98;;;13.10;99.90;;;;;;5310484;26;20562;-51
2024/04/09 11:03:09;;;;;;;3.42;0.85;;;13.20;99.90;;;;;;5302504;26;20006;-57
2024/04/09 11:05:35;;;;;;;4.03;0.98;;;13.20;99.90;;;;;;5300161;26;20021;-51
2024/04/09 11:08:01;;;;;;;5.03;1.38;;;13.10;99.90;;;;;;5298110;26;20008;-49
2024/04/09 11:10:28;;;;;;;2.70;1.08;;;13.10;99.90;;;;;;5303316;26;20394;-52
2024/04/09 11:12:54;;;;;;;5.88;1.80;;;13.20;99.90;;;;;;5310710;26;20013;-47
2024/04/09 11:15:22;;;;;;;4.00;0.90;;;13.20;99.90;;;;;;5319602;26;20083;-47
2024/04/09 11:17:48;;;;;;;6.53;0.98;;;13.20;99.90;;;;;;5331675;26;20533;-58
2024/04/09 11:20:14;;;;;;;1.17;0.75;;;13.20;99.90;;;;;;5329910;26;20010;-59
2024/04/09 11:22:41;;;;;;;3.22;0.93;;;13.20;99.90;;;;;;5354952;26;20523;-46
2024/04/09 11:25:19;;;;;;;8.18;1.00;;;13.20;99.90;;;;;;5328586;26;20009;-48
2024/04/09 11:27:48;;;;;;;2.70;0.80;;;13.20;99.90;;;;;;5321424;26;20001;-49
2024/04/09 11:30:26;;;;;;;1.73;1.20;;;13.20;99.90;;;;;;5353630;26;20002;-52
2024/04/09 11:32:54;;;;;;;1.83;0.90;;;13.20;99.90;;;;;;5325205;26;20005;-47
2024/04/09 11:35:21;;;;;;;4.28;1.10;;;13.10;99.90;;;;;;5316723;26;20002;-47
2024/04/09 11:37:58;;;;;;;3.67;1.00;;;13.20;99.90;;;;;;5312925;26;20029;-50
2024/04/09 11:40:25;;;;;;;6.38;1.42;;;13.10;99.90;;;;;;5312365;26;20045;-50
2024/04/09 11:42:54;;;;;;;3.80;1.20;;;13.10;99.90;;;;;;5312390;26;20042;-46
2024/04/09 11:45:26;;;;;;;8.15;1.25;;;13.00;99.90;;;;;;5310360;27;20439;-48
2024/04/09 11:47:52;;;;;;;8.20;1.08;;;12.90;99.90;;;;;;5278154;27;20510;-52
2024/04/09 11:50:18;;;;;;;3.85;1.10;;;12.90;99.90;;;;;;5274448;27;19998;-58
2024/04/09 11:52:44;;;;;;;3.75;1.25;;;12.90;99.90;;;;;;5275468;27;20013;-48
2024/04/09 11:55:10;;;;;;;2.47;1.00;;;12.80;99.90;;;;;;5307544;26;20361;-47
2024/04/09 11:57:42;;;;;;;4.40;1.00;;;12.80;99.90;;;;;;5312468;26;20215;-48
2024/04/09 12:00:12;;;;;;;3.33;1.08;;;12.80;99.90;;;;;;5311880;26;20002;-49
2024/04/09 12:02:41;;;;;;;2.05;1.60;;;12.70;99.90;;;;;;5312708;26;19997;-45
2024/04/09 12:05:07;;;;;;;5.07;1.88;;;12.70;99.90;;;;;;5310619;26;20002;-45
2024/04/09 12:07:33;;;;;;;4.40;1.33;;;12.70;99.90;;;;;;5312559;27;20049;-47
2024/04/09 12:09:58;;;;;;;2.60;0.80;;;12.80;99.90;;;;;;5312651;26;20001;-47
2024/04/09 12:12:24;;;;;;;3.17;1.00;;;12.80;99.90;;;;;;5312358;26;20468;-47
2024/04/09 12:14:49;;;;;;;4.47;1.23;;;12.80;99.90;;;;;;5310008;26;20005;-50
2024/04/09 12:17:15;;;;;;;3.25;1.10;;;12.80;99.90;;;;;;5312746;27;20462;-49
2024/04/09 12:19:42;;;;;;;1.33;0.70;;;12.90;99.90;;;;;;5311626;26;20025;-49
2024/04/09 12:22:08;;;;;;;4.85;0.90;;;12.90;99.90;;;;;;5312231;26;20476;-48
2024/04/09 12:24:35;;;;;;;2.33;0.80;;;12.90;99.90;;;;;;5310981;26;20033;-48
2024/04/09 12:27:00;;;;;;;1.02;0.75;;;12.90;99.90;;;;;;5312247;27;20009;-50
2024/04/09 12:29:28;;;;;;;2.47;0.90;;;12.90;99.90;;;;;;5311821;27;20049;-50
2024/04/09 12:31:54;;;;;;;4.13;1.20;;;12.80;99.90;;;;;;5339237;26;19997;-45
2024/04/09 12:34:19;;;;;;;3.85;1.08;;;12.80;99.90;;;;;;5312013;26;20461;-46
2024/04/09 12:36:45;;;;;;;1.95;0.98;;;12.70;99.90;;;;;;5316414;26;20348;-51